Hassi-Messaoud, Algeria
Current Conditions -  °F | °C
As of 4:00 PM on Thursday 23 Oct 2014 (Local Time) from DAUH Reporting Station
Clear Clear  
Wind Chill: 81°   Ceiling: Unl
Heat Index: 81°   Visibility: 5mi
Dew Point: 30°   Wind: 14mph
Humidity: 16%   Direction: 360°N
Pressure: 30"   Gusts: NA
Location:  31.68°N, 6.07°E
Report Text: DAUH 231500Z 36012KT 8000 NSC 27/M01 Q1016
Loading
Personal Weather Stations






























Interactive Weather Map
Tropical Storm Tracking
New forecast layout! Learn more

10-Day Weather Forecast

Advertisements
Track Severe Weather on mobile